Time;durP1;ratioP1;P1;durP2;ratioP2;P2;SDS_P1;SDS_P2;PMS_P1;PMS_P2;Temp;Humidity;BMP_temperature;BMP_pressure;BME280_temperature;BME280_humidity;BME280_pressure;Samples;Min_cycle;Max_cycle;Signal;HPM_P1;HPM_P2
2024/01/05 00:00:28;;;;;;;8.00;5.60;;;;;;;-1.57;84.87;99347.09;111418;240;38443;-70
2024/01/05 00:03:24;;;;;;;8.10;6.00;;;;;;;-1.54;84.79;99347.57;111388;240;38543;-71
2024/01/05 00:05:58;;;;;;;7.40;5.90;;;;;;;-1.52;85.24;99346.20;111345;240;38271;-72
2024/01/05 00:08:32;;;;;;;7.40;6.50;;;;;;;-1.46;85.51;99348.56;111387;240;38684;-71
2024/01/05 00:11:06;;;;;;;7.90;6.40;;;;;;;-1.45;84.91;99358.30;111465;240;40163;-71
2024/01/05 00:13:40;;;;;;;8.50;5.90;;;;;;;-1.48;85.04;99362.25;111414;240;38758;-70
2024/01/05 00:16:19;;;;;;;7.30;5.20;;;;;;;-1.50;85.00;99370.98;111427;240;40062;-71
2024/01/05 00:18:53;;;;;;;6.00;5.00;;;;;;;-1.48;84.86;99379.52;111430;240;39176;-72
2024/01/05 00:21:27;;;;;;;6.40;4.70;;;;;;;-1.45;84.90;99385.84;111407;240;38488;-71
2024/01/05 00:24:03;;;;;;;6.00;5.10;;;;;;;-1.38;85.41;99391.80;111444;240;39431;-71
2024/01/05 00:26:37;;;;;;;5.90;4.90;;;;;;;-1.34;85.19;99395.19;111398;240;38383;-71
2024/01/05 00:29:10;;;;;;;6.60;4.90;;;;;;;-1.35;85.04;99401.35;111401;240;39344;-71
2024/01/05 00:31:44;;;;;;;6.20;4.70;;;;;;;-1.35;85.02;99400.83;111414;240;39419;-71
2024/01/05 00:34:17;;;;;;;6.30;4.40;;;;;;;-1.36;84.82;99406.84;111407;240;38392;-72
2024/01/05 00:36:51;;;;;;;4.40;3.50;;;;;;;-1.40;84.41;99406.34;111267;240;38422;-70
2024/01/05 00:39:24;;;;;;;5.20;3.80;;;;;;;-1.42;84.57;99417.48;111257;241;38302;-70
2024/01/05 00:42:01;;;;;;;4.50;3.90;;;;;;;-1.39;84.61;99419.16;111473;240;38400;-72
2024/01/05 00:44:35;;;;;;;6.10;4.10;;;;;;;-1.36;84.63;99430.95;111434;240;38267;-71
2024/01/05 00:47:13;;;;;;;5.00;4.30;;;;;;;-1.34;84.69;99439.15;111396;240;40415;-72
2024/01/05 00:49:47;;;;;;;5.40;4.60;;;;;;;-1.32;84.72;99441.55;111318;240;176028;-71
2024/01/05 00:52:21;;;;;;;5.90;4.80;;;;;;;-1.34;84.57;99448.55;111419;240;38685;-70
2024/01/05 00:54:57;;;;;;;6.20;4.60;;;;;;;-1.37;84.86;99448.08;111438;240;38867;-70
2024/01/05 00:57:31;;;;;;;5.90;3.90;;;;;;;-1.36;85.37;99453.03;111383;241;38774;-71
2024/01/05 01:00:08;;;;;;;4.50;3.70;;;;;;;-1.31;85.53;99453.00;111415;240;39043;-71
2024/01/05 01:02:42;;;;;;;6.40;4.50;;;;;;;-1.27;85.45;99454.52;111421;240;38687;-71
2024/01/05 01:05:16;;;;;;;4.60;4.10;;;;;;;-1.23;85.53;99454.33;111447;240;38309;-70
2024/01/05 01:07:49;;;;;;;5.10;4.30;;;;;;;-1.19;85.72;99463.72;111396;240;38489;-70
2024/01/05 01:10:23;;;;;;;5.70;4.60;;;;;;;-1.18;85.60;99466.11;111451;240;38309;-71
2024/01/05 01:12:57;;;;;;;5.60;4.20;;;;;;;-1.21;85.58;99469.89;111428;240;39979;-71
2024/01/05 01:15:31;;;;;;;5.10;4.60;;;;;;;-1.24;85.43;99468.71;111422;240;38694;-71
2024/01/05 01:18:05;;;;;;;6.00;3.50;;;;;;;-1.29;85.40;99476.42;111429;240;38308;-70
2024/01/05 01:20:39;;;;;;;4.00;3.40;;;;;;;-1.29;85.49;99477.11;111475;240;39783;-71
2024/01/05 01:23:13;;;;;;;4.10;3.50;;;;;;;-1.27;85.44;99481.56;111374;240;38870;-71
2024/01/05 01:25:47;;;;;;;4.60;3.50;;;;;;;-1.28;85.34;99481.05;111419;240;38415;-71
2024/01/05 01:28:21;;;;;;;5.00;4.30;;;;;;;-1.27;85.81;99485.84;111234;241;41037;-71
2024/01/05 01:30:55;;;;;;;4.50;4.10;;;;;;;-1.26;85.64;99487.55;111436;240;40041;-71
2024/01/05 01:33:28;;;;;;;4.00;3.50;;;;;;;-1.28;85.57;99489.60;111421;240;38442;-71
2024/01/05 01:36:02;;;;;;;4.20;3.50;;;;;;;-1.31;85.33;99490.13;111438;240;38299;-71
2024/01/05 01:38:36;;;;;;;4.30;3.20;;;;;;;-1.35;85.04;99492.02;110731;240;933212;-71
2024/01/05 01:41:10;;;;;;;3.10;2.80;;;;;;;-1.34;85.12;99496.80;111437;240;38697;-73
2024/01/05 01:43:49;;;;;;;4.30;3.40;;;;;;;-1.32;84.99;99501.26;111391;240;38478;-71
2024/01/05 01:46:23;;;;;;;4.60;3.40;;;;;;;-1.31;85.12;99508.61;111489;241;38237;-70
2024/01/05 01:48:57;;;;;;;6.00;4.20;;;;;;;-1.29;84.82;99509.11;110707;241;915349;-69
2024/01/05 01:51:31;;;;;;;4.70;3.50;;;;;;;-1.32;84.59;99511.34;111455;240;38275;-71
2024/01/05 01:54:07;;;;;;;3.70;3.30;;;;;;;-1.35;84.57;99512.38;111425;240;38292;-71
2024/01/05 01:56:41;;;;;;;3.90;3.00;;;;;;;-1.37;84.64;99514.80;111485;240;38249;-71
2024/01/05 01:59:14;;;;;;;3.90;2.90;;;;;;;-1.38;84.33;99515.30;111420;240;38306;-71
2024/01/05 02:01:48;;;;;;;4.80;2.80;;;;;;;-1.40;84.01;99517.36;111409;240;39415;-71
2024/01/05 02:04:22;;;;;;;4.60;3.20;;;;;;;-1.40;83.87;99517.88;111393;240;38236;-70
2024/01/05 02:06:56;;;;;;;4.00;3.20;;;;;;;-1.40;84.02;99512.74;111407;241;38474;-71
2024/01/05 02:09:30;;;;;;;4.10;3.00;;;;;;;-1.43;83.75;99510.88;111387;240;38390;-71
2024/01/05 02:12:04;;;;;;;4.40;3.40;;;;;;;-1.44;84.05;99510.86;111390;240;38702;-71
2024/01/05 02:14:38;;;;;;;4.80;3.50;;;;;;;-1.45;84.07;99507.97;111213;241;38469;-72
2024/01/05 02:17:32;;;;;;;4.70;3.80;;;;;;;-1.48;83.96;99513.45;111294;240;176025;-69
2024/01/05 02:20:08;;;;;;;4.20;3.50;;;;;;;-1.52;83.55;99515.02;111427;240;39068;-70
2024/01/05 02:22:44;;;;;;;3.70;3.00;;;;;;;-1.53;83.89;99526.98;111292;240;175730;-71
2024/01/05 02:25:17;;;;;;;3.90;3.20;;;;;;;-1.53;83.68;99533.31;111382;241;38435;-68
2024/01/05 02:27:54;;;;;;;6.40;3.30;;;;;;;-1.50;83.95;99538.42;111396;240;40044;-69
2024/01/05 02:30:31;;;;;;;5.00;3.30;;;;;;;-1.47;84.14;99538.60;111418;240;38548;-73
2024/01/05 02:33:05;;;;;;;4.20;3.30;;;;;;;-1.47;83.91;99546.46;111395;241;39630;-72
2024/01/05 02:35:39;;;;;;;4.40;2.90;;;;;;;-1.47;83.62;99545.27;111400;240;38949;-71
2024/01/05 02:38:12;;;;;;;4.00;3.20;;;;;;;-1.52;82.87;99552.29;111376;240;38466;-71
2024/01/05 02:40:46;;;;;;;4.50;3.10;;;;;;;-1.59;82.29;99551.97;111362;240;38739;-70
2024/01/05 02:43:20;;;;;;;3.00;2.50;;;;;;;-1.62;82.27;99561.20;111203;242;39494;-70
2024/01/05 02:45:53;;;;;;;2.80;2.20;;;;;;;-1.64;82.36;99566.67;111232;242;38797;-70
2024/01/05 02:48:27;;;;;;;4.40;3.10;;;;;;;-1.60;82.41;99566.85;111255;242;39139;-70
2024/01/05 02:51:01;;;;;;;4.60;2.90;;;;;;;-1.58;82.62;99569.77;111258;241;38714;-72
2024/01/05 02:53:35;;;;;;;4.00;2.70;;;;;;;-1.54;82.31;99570.76;111214;242;38428;-72
2024/01/05 02:56:09;;;;;;;5.10;3.20;;;;;;;-1.57;81.83;99568.05;111141;242;176018;-70
2024/01/05 02:58:44;;;;;;;4.50;2.90;;;;;;;-1.60;81.59;99571.97;111255;241;38326;-70
2024/01/05 03:01:21;;;;;;;4.90;2.70;;;;;;;-1.63;81.80;99570.61;111260;241;38478;-69
2024/01/05 03:04:00;;;;;;;4.20;2.80;;;;;;;-1.66;81.63;99570.28;111128;241;38339;-69
2024/01/05 03:06:40;;;;;;;4.00;2.90;;;;;;;-1.70;81.44;99574.90;111201;242;39436;-70
2024/01/05 03:09:16;;;;;;;4.00;2.90;;;;;;;-1.68;81.50;99577.29;111189;243;38444;-71
2024/01/05 03:11:50;;;;;;;3.70;2.60;;;;;;;-1.65;81.74;99582.94;111260;243;38368;-71
2024/01/05 03:14:23;;;;;;;3.90;2.90;;;;;;;-1.67;80.83;99584.64;111128;243;176080;-70
2024/01/05 03:16:57;;;;;;;4.20;2.50;;;;;;;-1.67;80.90;99587.55;111293;243;39771;-70
2024/01/05 03:19:31;;;;;;;3.00;2.60;;;;;;;-1.67;80.81;99590.80;111213;243;39739;-70
2024/01/05 03:22:05;;;;;;;4.20;3.10;;;;;;;-1.67;80.62;99589.09;111208;243;38320;-70
2024/01/05 03:24:43;;;;;;;3.60;3.00;;;;;;;-1.70;79.86;99595.41;111202;243;38805;-71
2024/01/05 03:27:17;;;;;;;2.70;2.30;;;;;;;-1.74;79.99;99597.13;111228;243;39536;-70
2024/01/05 03:29:51;;;;;;;2.90;2.40;;;;;;;-1.80;79.90;99604.83;111267;242;39783;-70
2024/01/05 03:32:24;;;;;;;2.50;1.80;;;;;;;-1.82;80.00;99612.36;111178;243;38555;-71
2024/01/05 03:34:58;;;;;;;2.70;2.20;;;;;;;-1.82;80.08;99615.27;111233;243;38345;-70
2024/01/05 03:37:35;;;;;;;2.80;2.00;;;;;;;-1.80;80.14;99617.31;111202;243;38519;-69
2024/01/05 03:40:13;;;;;;;3.80;2.20;;;;;;;-1.79;80.00;99622.95;111137;243;41594;-70
2024/01/05 03:42:51;;;;;;;2.40;2.00;;;;;;;-1.78;80.05;99623.45;111226;241;38658;-70
2024/01/05 03:45:28;;;;;;;3.40;2.20;;;;;;;-1.79;79.86;99627.73;111244;241;38351;-69
2024/01/05 03:48:04;;;;;;;3.60;1.90;;;;;;;-1.79;79.76;99632.01;111237;241;38745;-69
2024/01/05 03:50:38;;;;;;;2.60;1.70;;;;;;;-1.82;78.85;99635.60;111253;241;39356;-70
2024/01/05 03:53:11;;;;;;;2.20;1.60;;;;;;;-1.87;78.92;99640.23;111256;241;38908;-71
2024/01/05 03:55:45;;;;;;;2.50;1.70;;;;;;;-1.89;79.07;99641.74;111237;242;38676;-71
2024/01/05 03:58:18;;;;;;;1.70;1.30;;;;;;;-1.92;79.06;99638.84;111250;241;38571;-71
2024/01/05 04:00:52;;;;;;;2.50;1.20;;;;;;;-1.91;79.18;99640.56;111227;241;38837;-71
2024/01/05 04:03:26;;;;;;;1.60;1.20;;;;;;;-1.91;78.78;99640.39;111288;241;38635;-71
2024/01/05 04:06:00;;;;;;;1.50;1.20;;;;;;;-1.92;78.76;99647.21;111249;241;39488;-70
2024/01/05 04:08:35;;;;;;;2.10;1.40;;;;;;;-1.93;78.68;99650.29;111253;241;39021;-71
2024/01/05 04:11:09;;;;;;;1.50;1.30;;;;;;;-1.94;78.63;99652.34;111283;241;39561;-70
2024/01/05 04:13:44;;;;;;;2.30;2.10;;;;;;;-1.95;78.21;99651.83;111249;241;39123;-70
2024/01/05 04:16:17;;;;;;;2.20;1.90;;;;;;;-1.99;78.22;99655.25;111224;241;39682;-70
2024/01/05 04:18:51;;;;;;;3.00;2.20;;;;;;;-2.01;78.33;99662.60;111261;241;39348;-70
2024/01/05 04:21:25;;;;;;;1.80;1.50;;;;;;;-2.02;78.61;99669.59;111257;241;38264;-70
2024/01/05 04:23:59;;;;;;;1.80;1.60;;;;;;;-2.05;78.48;99675.41;111227;241;38223;-70
2024/01/05 04:26:33;;;;;;;1.80;1.40;;;;;;;-2.05;78.68;99673.87;111266;241;39549;-69
2024/01/05 04:29:11;;;;;;;2.00;1.20;;;;;;;-2.00;79.12;99683.10;111212;241;38398;-69
2024/01/05 04:31:51;;;;;;;2.60;1.40;;;;;;;-1.93;79.51;99679.70;111266;241;39168;-69
2024/01/05 04:34:28;;;;;;;1.70;1.20;;;;;;;-1.88;79.46;99679.19;111071;241;38218;-72
2024/01/05 04:37:02;;;;;;;1.60;1.10;;;;;;;-1.82;79.31;99685.36;111273;241;38347;-71
2024/01/05 04:39:36;;;;;;;1.90;1.50;;;;;;;-1.78;79.37;99687.91;111183;241;39944;-71
2024/01/05 04:42:11;;;;;;;9.10;2.40;;;;;;;-1.79;79.05;99691.50;111220;241;38823;-70
2024/01/05 04:44:45;;;;;;;1.60;1.40;;;;;;;-1.81;79.27;99693.40;111230;241;38323;-70
2024/01/05 04:47:19;;;;;;;2.10;1.50;;;;;;;-1.81;78.99;99697.66;111217;241;38297;-70
2024/01/05 04:49:52;;;;;;;2.40;1.40;;;;;;;-1.84;79.14;99698.67;111282;241;38620;-70
2024/01/05 04:52:26;;;;;;;2.30;1.10;;;;;;;-1.82;79.32;99704.86;111210;241;38392;-71
2024/01/05 04:55:00;;;;;;;1.70;1.30;;;;;;;-1.83;78.40;99705.70;111232;241;40488;-71
2024/01/05 04:57:33;;;;;;;1.50;1.30;;;;;;;-1.84;79.04;99703.13;111216;241;39979;-71
2024/01/05 05:00:11;;;;;;;1.70;1.40;;;;;;;-1.80;79.05;99704.67;111246;241;39484;-71
2024/01/05 05:02:44;;;;;;;1.80;1.60;;;;;;;-1.81;79.14;99703.48;111204;241;38316;-71
2024/01/05 05:05:18;;;;;;;2.10;1.70;;;;;;;-1.82;79.25;99698.86;111256;241;38723;-70
2024/01/05 05:07:51;;;;;;;3.70;1.70;;;;;;;-1.83;79.30;99703.46;111233;241;38532;-70
2024/01/05 05:10:25;;;;;;;2.10;1.40;;;;;;;-1.83;79.63;99704.15;111266;241;38277;-70
2024/01/05 05:12:59;;;;;;;2.00;1.50;;;;;;;-1.83;79.83;99704.33;111234;241;38833;-70
2024/01/05 05:15:33;;;;;;;1.60;1.50;;;;;;;-1.85;79.73;99708.77;111232;241;38441;-70
2024/01/05 05:18:07;;;;;;;1.80;1.40;;;;;;;-1.87;79.66;99715.27;111208;241;40022;-70
2024/01/05 05:20:40;;;;;;;1.60;1.40;;;;;;;-1.90;79.90;99722.77;111229;241;38738;-70
2024/01/05 05:23:14;;;;;;;2.60;1.20;;;;;;;-1.88;80.17;99721.23;111242;241;38246;-71
2024/01/05 05:25:48;;;;;;;1.80;1.60;;;;;;;-1.85;80.18;99728.09;111219;241;38345;-70
2024/01/05 05:28:21;;;;;;;2.60;2.00;;;;;;;-1.84;80.25;99732.36;111255;241;38503;-71
2024/01/05 05:30:55;;;;;;;1.90;1.50;;;;;;;-1.84;79.55;99734.92;111220;242;38722;-71
2024/01/05 05:33:28;;;;;;;2.20;1.40;;;;;;;-1.86;79.86;99740.91;111223;241;38801;-71
2024/01/05 05:36:02;;;;;;;2.20;1.50;;;;;;;-1.82;80.04;99741.60;111220;241;40356;-70
2024/01/05 05:38:36;;;;;;;2.20;1.30;;;;;;;-1.86;79.69;99741.43;111260;241;39145;-70
2024/01/05 05:41:10;;;;;;;3.10;1.70;;;;;;;-1.89;79.78;99744.83;111262;241;38921;-70
2024/01/05 05:43:44;;;;;;;1.60;1.20;;;;;;;-1.91;80.23;99747.06;111212;241;39820;-70
2024/01/05 05:46:18;;;;;;;2.30;1.10;;;;;;;-1.88;80.27;99747.23;111285;241;38454;-70
2024/01/05 05:48:52;;;;;;;1.70;1.10;;;;;;;-1.83;80.40;99748.27;111240;241;38608;-70
2024/01/05 05:51:26;;;;;;;1.40;1.20;;;;;;;-1.77;80.52;99750.34;111278;241;41077;-70
2024/01/05 05:54:00;;;;;;;2.20;1.40;;;;;;;-1.70;80.36;99750.51;111244;241;38696;-70
2024/01/05 05:56:33;;;;;;;2.30;1.40;;;;;;;-1.65;80.42;99754.80;110933;241;342549;-69
2024/01/05 05:59:07;;;;;;;1.90;1.60;;;;;;;-1.61;80.20;99762.15;111184;241;39528;-69
2024/01/05 06:01:41;;;;;;;1.90;1.70;;;;;;;-1.61;79.83;99764.39;111286;242;38817;-70
2024/01/05 06:04:15;;;;;;;2.20;1.30;;;;;;;-1.61;79.88;99765.06;111215;241;38223;-71
2024/01/05 06:06:49;;;;;;;3.00;1.90;;;;;;;-1.63;79.37;99772.41;111251;241;38256;-70
2024/01/05 06:09:22;;;;;;;2.90;1.80;;;;;;;-1.67;79.56;99776.86;111261;241;38249;-70
2024/01/05 06:11:56;;;;;;;1.90;1.60;;;;;;;-1.69;79.84;99781.46;111249;241;38324;-70
2024/01/05 06:14:30;;;;;;;2.10;1.50;;;;;;;-1.71;79.48;99783.17;111218;241;38355;-70
2024/01/05 06:17:03;;;;;;;3.30;1.60;;;;;;;-1.71;79.43;99788.14;111299;242;38886;-70
2024/01/05 06:19:38;;;;;;;2.90;1.60;;;;;;;-1.69;79.90;99793.77;111250;241;38377;-71
2024/01/05 06:22:12;;;;;;;3.70;1.80;;;;;;;-1.66;79.64;99793.96;111188;241;39121;-69
2024/01/05 06:24:46;;;;;;;3.30;2.00;;;;;;;-1.63;79.37;99792.60;111224;241;38326;-69
2024/01/05 06:27:20;;;;;;;2.10;1.70;;;;;;;-1.62;79.00;99796.20;111218;241;38528;-70
2024/01/05 06:29:53;;;;;;;3.60;2.60;;;;;;;-1.62;79.14;99797.21;111267;241;38394;-70
2024/01/05 06:32:27;;;;;;;3.30;2.10;;;;;;;-1.63;78.90;99799.59;111220;241;39023;-71
2024/01/05 06:35:00;;;;;;;2.30;1.80;;;;;;;-1.64;78.89;99798.05;111235;241;38897;-71
2024/01/05 06:37:34;;;;;;;2.10;1.70;;;;;;;-1.66;78.74;99805.06;111250;242;38301;-71
2024/01/05 06:40:12;;;;;;;2.60;1.70;;;;;;;-1.68;78.70;99807.11;111283;242;38298;-71
2024/01/05 06:42:45;;;;;;;3.00;1.70;;;;;;;-1.69;78.26;99811.89;111228;241;39961;-71
2024/01/05 06:45:19;;;;;;;2.50;1.70;;;;;;;-1.67;78.43;99815.67;111210;241;39456;-71
2024/01/05 06:47:54;;;;;;;2.50;2.10;;;;;;;-1.61;78.45;99818.42;111216;241;38490;-69
2024/01/05 06:50:33;;;;;;;2.80;1.70;;;;;;;-1.57;78.63;99824.26;111192;241;38312;-70
2024/01/05 06:53:07;;;;;;;3.60;2.70;;;;;;;-1.53;78.75;99828.19;111244;241;38803;-71
2024/01/05 06:55:41;;;;;;;3.30;2.20;;;;;;;-1.50;78.67;99826.14;111247;241;39102;-70
2024/01/05 06:58:15;;;;;;;3.20;2.40;;;;;;;-1.50;78.94;99826.48;111235;241;39549;-70
2024/01/05 07:00:48;;;;;;;3.10;2.00;;;;;;;-1.53;78.50;99831.27;111294;241;38338;-70
2024/01/05 07:03:22;;;;;;;2.50;2.00;;;;;;;-1.54;79.10;99835.02;111219;241;38075;-71
2024/01/05 07:05:59;;;;;;;2.60;1.80;;;;;;;-1.53;79.24;99836.90;111287;241;39967;-67
2024/01/05 07:08:33;;;;;;;2.90;2.40;;;;;;;-1.53;79.11;99838.78;111207;241;38534;-69
2024/01/05 07:11:07;;;;;;;2.80;1.30;;;;;;;-1.53;78.32;99840.84;111255;242;38265;-71
2024/01/05 07:13:41;;;;;;;2.50;1.70;;;;;;;-1.52;78.67;99845.13;111263;241;38501;-71
2024/01/05 07:16:20;;;;;;;3.00;1.90;;;;;;;-1.48;79.06;99847.01;111287;241;38362;-71
2024/01/05 07:18:54;;;;;;;2.70;2.00;;;;;;;-1.44;78.78;99842.57;111237;241;38331;-73
2024/01/05 07:21:28;;;;;;;2.60;2.00;;;;;;;-1.42;78.59;99844.13;111272;241;39416;-72
2024/01/05 07:24:02;;;;;;;3.20;2.00;;;;;;;-1.38;78.68;99844.64;111235;242;38358;-73
2024/01/05 07:26:36;;;;;;;5.20;2.40;;;;;;;-1.37;78.70;99841.05;111282;241;39525;-70
2024/01/05 07:29:10;;;;;;;4.30;2.40;;;;;;;-1.38;78.65;99840.19;111256;241;39015;-70
2024/01/05 07:31:43;;;;;;;2.90;2.00;;;;;;;-1.42;78.01;99841.05;111275;241;38755;-71
2024/01/05 07:34:17;;;;;;;2.20;1.70;;;;;;;-1.46;78.23;99838.98;111134;242;39781;-71
2024/01/05 07:36:55;;;;;;;4.40;1.90;;;;;;;-1.47;78.30;99837.60;111271;241;38431;-71
2024/01/05 07:39:29;;;;;;;2.30;1.50;;;;;;;-1.46;78.24;99838.47;111086;242;38230;-71
2024/01/05 07:42:03;;;;;;;3.40;1.70;;;;;;;-1.46;77.51;99840.17;111206;241;38417;-71
2024/01/05 07:44:37;;;;;;;2.60;2.00;;;;;;;-1.47;77.57;99843.77;111209;242;38847;-71
2024/01/05 07:47:11;;;;;;;3.10;1.80;;;;;;;-1.44;78.03;99849.59;111264;241;39754;-70
2024/01/05 07:49:45;;;;;;;3.40;2.00;;;;;;;-1.39;78.13;99850.79;111256;241;38302;-69
2024/01/05 07:52:19;;;;;;;3.60;2.40;;;;;;;-1.36;78.48;99850.98;111240;241;38508;-69
2024/01/05 07:54:53;;;;;;;2.80;2.00;;;;;;;-1.36;78.57;99850.29;111284;241;38872;-71
2024/01/05 07:57:27;;;;;;;2.90;2.10;;;;;;;-1.36;78.47;99850.29;111251;242;38794;-71
2024/01/05 08:00:01;;;;;;;2.70;1.80;;;;;;;-1.37;78.80;99853.89;111274;241;38563;-70
2024/01/05 08:02:56;;;;;;;2.30;1.70;;;;;;;-1.36;78.92;99853.88;110929;242;173403;-70
2024/01/05 08:05:30;;;;;;;2.20;1.50;;;;;;;-1.34;78.99;99856.96;111235;242;38398;-71
2024/01/05 08:08:04;;;;;;;2.00;1.60;;;;;;;-1.26;78.72;99855.77;111219;241;38256;-70
2024/01/05 08:10:38;;;;;;;3.00;1.90;;;;;;;-1.22;78.31;99858.70;111285;241;38265;-72
2024/01/05 08:13:14;;;;;;;6.50;2.90;;;;;;;-1.18;78.24;99866.91;111266;242;39748;-70
2024/01/05 08:15:47;;;;;;;4.30;2.70;;;;;;;-1.15;78.22;99867.42;111237;241;38288;-71
2024/01/05 08:18:21;;;;;;;3.40;2.60;;;;;;;-1.15;78.42;99868.12;111223;241;39548;-70
2024/01/05 08:20:55;;;;;;;6.40;3.20;;;;;;;-1.15;78.06;99875.48;111272;241;38584;-72
2024/01/05 08:23:29;;;;;;;5.10;2.90;;;;;;;-1.19;77.75;99873.58;111262;241;38325;-72
2024/01/05 08:26:04;;;;;;;3.90;2.40;;;;;;;-1.21;78.05;99876.16;111271;241;39926;-71
2024/01/05 08:28:38;;;;;;;3.00;2.30;;;;;;;-1.21;78.07;99882.48;111251;241;38264;-71
2024/01/05 08:31:12;;;;;;;3.50;2.20;;;;;;;-1.22;77.79;99886.08;111237;241;38879;-70
2024/01/05 08:33:46;;;;;;;3.50;1.90;;;;;;;-1.26;77.41;99890.17;111269;241;40457;-70
2024/01/05 08:36:20;;;;;;;5.40;2.70;;;;;;;-1.27;77.14;99892.58;111236;242;39904;-70
2024/01/05 08:38:54;;;;;;;3.90;2.80;;;;;;;-1.25;77.48;99888.12;111252;241;38960;-70
2024/01/05 08:41:28;;;;;;;5.40;2.80;;;;;;;-1.22;77.55;99890.19;111266;241;40169;-71
2024/01/05 08:44:01;;;;;;;3.20;2.60;;;;;;;-1.18;77.52;99891.05;111256;241;38306;-70
2024/01/05 08:46:35;;;;;;;4.30;3.00;;;;;;;-1.16;77.72;99894.65;111255;241;38261;-71
2024/01/05 08:49:09;;;;;;;4.40;3.40;;;;;;;-1.14;77.80;99895.48;111242;242;38403;-69
2024/01/05 08:51:46;;;;;;;5.80;3.80;;;;;;;-1.15;77.84;99901.50;111266;241;38483;-70
2024/01/05 08:54:21;;;;;;;7.00;3.70;;;;;;;-1.17;77.54;99904.73;111089;242;38654;-70
2024/01/05 08:56:56;;;;;;;7.20;4.10;;;;;;;-1.20;77.35;99910.89;111265;241;37900;-70
2024/01/05 08:59:31;;;;;;;4.50;3.00;;;;;;;-1.24;77.27;99915.67;111205;242;38885;-72
2024/01/05 09:02:05;;;;;;;3.30;2.20;;;;;;;-1.25;77.46;99917.21;111292;241;38324;-71
2024/01/05 09:04:43;;;;;;;2.80;1.80;;;;;;;-1.25;77.35;99925.26;111248;241;38261;-71
2024/01/05 09:07:18;;;;;;;2.10;1.50;;;;;;;-1.26;77.33;99925.60;111230;241;38370;-71
2024/01/05 09:09:55;;;;;;;3.50;1.80;;;;;;;-1.24;77.55;99922.70;111275;241;38328;-70
2024/01/05 09:12:29;;;;;;;2.60;2.00;;;;;;;-1.21;78.02;99921.85;111250;241;38866;-70
2024/01/05 09:15:04;;;;;;;3.40;2.30;;;;;;;-1.17;78.46;99924.94;111258;241;39457;-70
2024/01/05 09:17:37;;;;;;;6.00;3.10;;;;;;;-1.14;78.51;99930.58;111241;241;38380;-71
2024/01/05 09:20:13;;;;;;;6.40;3.20;;;;;;;-1.10;78.58;99932.98;111236;241;38332;-70
2024/01/05 09:22:50;;;;;;;5.50;3.40;;;;;;;-1.10;78.18;99935.90;111111;242;173248;-71
2024/01/05 09:25:23;;;;;;;7.50;3.20;;;;;;;-1.10;78.30;99939.84;111282;241;38636;-70
2024/01/05 09:27:57;;;;;;;4.40;3.40;;;;;;;-1.07;78.77;99937.45;111246;242;38379;-71
2024/01/05 09:30:31;;;;;;;3.50;2.50;;;;;;;-1.04;78.61;99936.27;111247;242;38644;-70
2024/01/05 09:33:05;;;;;;;2.50;1.90;;;;;;;-0.99;78.19;99937.13;111286;241;38590;-70
2024/01/05 09:35:39;;;;;;;2.60;1.70;;;;;;;-0.95;77.78;99939.19;111286;242;38402;-70
2024/01/05 09:38:13;;;;;;;3.00;2.10;;;;;;;-0.92;77.57;99938.68;111116;241;176022;-70
2024/01/05 09:40:52;;;;;;;3.20;1.90;;;;;;;-0.87;77.91;99941.42;110556;241;916524;-70
2024/01/05 09:43:26;;;;;;;3.50;2.00;;;;;;;-0.82;77.98;99942.29;111244;241;38346;-72
2024/01/05 09:46:00;;;;;;;3.00;2.00;;;;;;;-0.79;77.95;99939.04;111319;242;38230;-70
2024/01/05 09:48:34;;;;;;;4.60;2.50;;;;;;;-0.77;77.94;99935.62;111327;241;39443;-71
2024/01/05 09:51:09;;;;;;;3.00;2.30;;;;;;;-0.73;78.03;99929.80;111264;241;39479;-70
2024/01/05 09:53:43;;;;;;;3.40;2.30;;;;;;;-0.66;78.09;99927.58;111241;241;38464;-71
2024/01/05 09:56:17;;;;;;;3.40;2.30;;;;;;;-0.61;77.76;99919.19;110562;242;915957;-71
2024/01/05 09:58:51;;;;;;;3.50;2.40;;;;;;;-0.57;76.78;99912.85;111249;241;38683;-72
2024/01/05 10:01:26;;;;;;;5.30;2.70;;;;;;;-0.53;76.51;99912.50;111222;242;39645;-71
2024/01/05 10:04:02;;;;;;;2.30;2.10;;;;;;;-0.49;76.13;99922.09;111120;242;38284;-71
2024/01/05 10:06:36;;;;;;;1.80;1.60;;;;;;;-0.50;75.47;99922.26;111097;242;38798;-71
2024/01/05 10:09:10;;;;;;;4.20;1.60;;;;;;;-0.53;74.91;99923.98;111243;241;38289;-72
2024/01/05 10:11:46;;;;;;;2.40;1.70;;;;;;;-0.57;74.20;99925.69;111297;242;38502;-70
2024/01/05 10:14:21;;;;;;;2.50;1.60;;;;;;;-0.60;73.69;99934.60;111213;242;38977;-70
2024/01/05 10:17:09;;;;;;;2.10;1.20;;;;;;;-0.60;73.76;99941.95;111226;241;38569;-72
2024/01/05 10:19:48;;;;;;;2.40;1.70;;;;;;;-0.63;72.93;99945.74;111247;241;38284;-71
2024/01/05 10:22:22;;;;;;;2.20;1.20;;;;;;;-0.65;72.98;99951.38;111239;241;38881;-70
2024/01/05 10:24:56;;;;;;;4.00;1.40;;;;;;;-0.68;72.94;99951.73;111206;241;38514;-71
2024/01/05 10:27:31;;;;;;;3.10;1.70;;;;;;;-0.69;72.42;99955.66;111262;241;38837;-70
2024/01/05 10:30:12;;;;;;;5.00;2.40;;;;;;;-0.69;72.88;99959.09;111256;241;38285;-70
2024/01/05 10:32:46;;;;;;;6.30;2.30;;;;;;;-0.68;73.09;99961.31;111256;241;39033;-70
2024/01/05 10:35:29;;;;;;;5.10;3.10;;;;;;;-0.67;72.48;99964.58;111268;241;38779;-71
2024/01/05 10:38:11;;;;;;;7.00;2.90;;;;;;;-0.69;72.57;99972.44;111281;241;38562;-72
2024/01/05 10:40:45;;;;;;;4.30;2.30;;;;;;;-0.68;72.96;99973.48;111236;241;38713;-71
2024/01/05 10:43:25;;;;;;;4.10;2.70;;;;;;;-0.65;73.74;99973.99;111243;241;38783;-71
2024/01/05 10:46:02;;;;;;;3.90;1.90;;;;;;;-0.60;73.52;99975.36;111146;242;175987;-72
2024/01/05 10:48:36;;;;;;;4.80;1.90;;;;;;;-0.56;73.33;99976.22;111220;242;38427;-72
2024/01/05 10:51:12;;;;;;;2.30;1.60;;;;;;;-0.50;72.88;99975.38;111286;241;38634;-72
2024/01/05 10:53:47;;;;;;;2.30;1.60;;;;;;;-0.49;72.05;99971.60;111242;242;39780;-72
2024/01/05 10:56:21;;;;;;;2.70;1.90;;;;;;;-0.47;71.64;99967.84;111252;241;38783;-72
2024/01/05 10:58:56;;;;;;;4.50;2.00;;;;;;;-0.45;71.44;99971.60;111239;241;38216;-71
2024/01/05 11:01:32;;;;;;;2.80;2.00;;;;;;;-0.43;71.25;99976.05;111305;242;39973;-71
2024/01/05 11:04:06;;;;;;;2.70;1.50;;;;;;;-0.40;70.83;99974.35;111266;241;39176;-72
2024/01/05 11:06:39;;;;;;;2.10;1.50;;;;;;;-0.36;70.90;99973.84;111261;241;38463;-72
2024/01/05 11:09:32;;;;;;;3.50;1.60;;;;;;;-0.33;71.04;99974.35;111251;241;38245;-72
2024/01/05 11:12:12;;;;;;;2.10;1.30;;;;;;;-0.30;71.36;99970.05;111269;242;38434;-72
2024/01/05 11:15:08;;;;;;;1.70;1.30;;;;;;;-0.26;71.00;99966.28;111238;242;38569;-71
2024/01/05 11:18:00;;;;;;;1.80;1.20;;;;;;;-0.25;71.14;99962.86;111330;241;38748;-70
2024/01/05 11:20:51;;;;;;;1.90;1.40;;;;;;;-0.20;70.80;99962.17;111295;241;38933;-70
2024/01/05 11:23:25;;;;;;;1.60;1.40;;;;;;;-0.23;70.28;99952.75;111229;242;40194;-71
2024/01/05 11:26:02;;;;;;;2.20;1.50;;;;;;;-0.20;70.78;99959.95;111272;242;39656;-71
2024/01/05 11:28:40;;;;;;;2.10;1.20;;;;;;;-0.15;71.35;99961.65;111235;241;39907;-71
2024/01/05 11:31:14;;;;;;;2.80;1.50;;;;;;;-0.11;70.29;99963.54;111248;242;38400;-71
2024/01/05 11:33:49;;;;;;;3.30;1.50;;;;;;;-0.12;70.13;99963.70;111256;241;38685;-71
2024/01/05 11:36:58;;;;;;;2.00;1.60;;;;;;;-0.10;69.54;99963.37;111259;242;38556;-72
2024/01/05 11:39:47;;;;;;;2.60;1.40;;;;;;;-0.08;69.66;99976.06;111258;241;39258;-70
2024/01/05 11:42:33;;;;;;;2.80;1.40;;;;;;;-0.07;70.40;99979.30;111115;241;175641;-71
2024/01/05 11:45:12;;;;;;;1.70;1.50;;;;;;;-0.03;70.35;99978.78;111243;241;38770;-70
2024/01/05 11:47:48;;;;;;;1.80;1.20;;;;;;;0.01;70.51;99977.24;111239;241;38807;-72
2024/01/05 11:50:30;;;;;;;1.90;1.20;;;;;;;0.04;69.41;99975.35;111126;241;175878;-68
2024/01/05 11:53:15;;;;;;;1.20;0.80;;;;;;;0.02;69.18;99970.55;111249;241;38781;-70
2024/01/05 11:55:53;;;;;;;2.50;1.00;;;;;;;0.02;68.66;99966.77;111250;241;38391;-74
2024/01/05 11:58:33;;;;;;;1.20;0.80;;;;;;;0.01;68.02;99967.30;111238;242;39414;-72
2024/01/05 12:01:09;;;;;;;1.50;0.90;;;;;;;-0.03;67.49;99967.81;111257;242;38697;-71
2024/01/05 12:03:47;;;;;;;1.80;1.10;;;;;;;-0.03;68.32;99973.64;111257;242;38392;-71
2024/01/05 12:06:21;;;;;;;1.60;1.00;;;;;;;-0.02;68.29;99977.59;111305;241;38221;-72
2024/01/05 12:08:56;;;;;;;2.20;0.90;;;;;;;-0.03;68.29;99983.77;111253;242;39750;-72
2024/01/05 12:11:30;;;;;;;1.40;0.90;;;;;;;-0.03;68.44;99979.65;111279;241;38734;-70